sensor_id;sensor_type;location;lat;lon;timestamp;P1;durP1;ratioP1;P2;durP2;ratioP2
46334;SDS011;32051;48.882;9.210;2023-04-15T00:01:44;5.70;;;3.60;;
46334;SDS011;32051;48.882;9.210;2023-04-15T00:04:10;8.35;;;3.70;;
46334;SDS011;32051;48.882;9.210;2023-04-15T00:06:36;12.27;;;4.35;;
46334;SDS011;32051;48.882;9.210;2023-04-15T00:09:03;9.00;;;4.45;;
46334;SDS011;32051;48.882;9.210;2023-04-15T00:11:30;11.07;;;2.83;;
46334;SDS011;32051;48.882;9.210;2023-04-15T00:13:56;5.35;;;3.47;;
46334;SDS011;32051;48.882;9.210;2023-04-15T00:16:22;11.80;;;4.32;;
46334;SDS011;32051;48.882;9.210;2023-04-15T00:18:48;6.70;;;2.97;;
46334;SDS011;32051;48.882;9.210;2023-04-15T00:21:14;6.43;;;3.67;;
46334;SDS011;32051;48.882;9.210;2023-04-15T00:23:41;9.85;;;3.95;;
46334;SDS011;32051;48.882;9.210;2023-04-15T00:26:08;5.15;;;3.45;;
46334;SDS011;32051;48.882;9.210;2023-04-15T00:28:34;6.28;;;3.72;;
46334;SDS011;32051;48.882;9.210;2023-04-15T00:31:01;7.40;;;3.50;;
46334;SDS011;32051;48.882;9.210;2023-04-15T00:33:28;13.52;;;3.60;;
46334;SDS011;32051;48.882;9.210;2023-04-15T00:35:54;6.15;;;3.60;;
46334;SDS011;32051;48.882;9.210;2023-04-15T00:38:20;7.65;;;3.63;;
46334;SDS011;32051;48.882;9.210;2023-04-15T00:40:47;12.00;;;4.30;;
46334;SDS011;32051;48.882;9.210;2023-04-15T00:43:13;8.45;;;3.72;;
46334;SDS011;32051;48.882;9.210;2023-04-15T00:45:40;6.85;;;4.38;;
46334;SDS011;32051;48.882;9.210;2023-04-15T00:48:08;5.30;;;3.95;;
46334;SDS011;32051;48.882;9.210;2023-04-15T00:50:35;3.88;;;3.58;;
46334;SDS011;32051;48.882;9.210;2023-04-15T00:53:01;8.82;;;3.28;;
46334;SDS011;32051;48.882;9.210;2023-04-15T00:55:27;4.20;;;3.60;;
46334;SDS011;32051;48.882;9.210;2023-04-15T00:57:53;4.97;;;3.63;;
46334;SDS011;32051;48.882;9.210;2023-04-15T01:00:19;5.32;;;4.07;;
46334;SDS011;32051;48.882;9.210;2023-04-15T01:02:46;9.57;;;3.83;;
46334;SDS011;32051;48.882;9.210;2023-04-15T01:05:12;9.93;;;3.75;;
46334;SDS011;32051;48.882;9.210;2023-04-15T01:07:41;4.85;;;3.55;;
46334;SDS011;32051;48.882;9.210;2023-04-15T01:10:07;3.38;;;3.08;;
46334;SDS011;32051;48.882;9.210;2023-04-15T01:12:33;7.43;;;3.95;;
46334;SDS011;32051;48.882;9.210;2023-04-15T01:15:02;9.35;;;4.10;;
46334;SDS011;32051;48.882;9.210;2023-04-15T01:17:29;6.88;;;3.22;;
46334;SDS011;32051;48.882;9.210;2023-04-15T01:19:55;8.60;;;4.28;;
46334;SDS011;32051;48.882;9.210;2023-04-15T01:22:24;13.07;;;3.40;;
46334;SDS011;32051;48.882;9.210;2023-04-15T01:24:54;5.07;;;3.40;;
46334;SDS011;32051;48.882;9.210;2023-04-15T01:27:23;7.57;;;3.55;;
46334;SDS011;32051;48.882;9.210;2023-04-15T01:29:50;3.47;;;2.90;;
46334;SDS011;32051;48.882;9.210;2023-04-15T01:32:16;4.05;;;3.45;;
46334;SDS011;32051;48.882;9.210;2023-04-15T01:34:43;6.15;;;3.55;;
46334;SDS011;32051;48.882;9.210;2023-04-15T01:37:09;8.13;;;4.25;;
46334;SDS011;32051;48.882;9.210;2023-04-15T01:39:36;5.32;;;3.67;;
46334;SDS011;32051;48.882;9.210;2023-04-15T01:42:02;8.02;;;3.65;;
46334;SDS011;32051;48.882;9.210;2023-04-15T01:44:28;10.55;;;4.45;;
46334;SDS011;32051;48.882;9.210;2023-04-15T01:46:54;13.13;;;4.40;;
46334;SDS011;32051;48.882;9.210;2023-04-15T01:49:20;7.15;;;3.75;;
46334;SDS011;32051;48.882;9.210;2023-04-15T01:51:46;8.40;;;4.25;;
46334;SDS011;32051;48.882;9.210;2023-04-15T01:54:12;9.95;;;4.45;;
46334;SDS011;32051;48.882;9.210;2023-04-15T01:56:38;5.20;;;3.55;;
46334;SDS011;32051;48.882;9.210;2023-04-15T01:59:04;8.20;;;3.85;;
46334;SDS011;32051;48.882;9.210;2023-04-15T02:01:30;6.03;;;3.60;;
46334;SDS011;32051;48.882;9.210;2023-04-15T02:03:58;11.05;;;4.68;;
46334;SDS011;32051;48.882;9.210;2023-04-15T02:06:24;8.98;;;3.78;;
46334;SDS011;32051;48.882;9.210;2023-04-15T02:08:50;4.18;;;2.95;;
46334;SDS011;32051;48.882;9.210;2023-04-15T02:11:16;10.73;;;3.75;;
46334;SDS011;32051;48.882;9.210;2023-04-15T02:13:42;4.00;;;3.30;;
46334;SDS011;32051;48.882;9.210;2023-04-15T02:16:15;8.80;;;3.45;;
46334;SDS011;32051;48.882;9.210;2023-04-15T02:18:45;5.03;;;3.20;;
46334;SDS011;32051;48.882;9.210;2023-04-15T02:21:12;6.63;;;4.90;;
46334;SDS011;32051;48.882;9.210;2023-04-15T02:23:38;10.82;;;3.67;;
46334;SDS011;32051;48.882;9.210;2023-04-15T02:26:04;6.75;;;3.58;;
46334;SDS011;32051;48.882;9.210;2023-04-15T02:28:30;14.77;;;4.07;;
46334;SDS011;32051;48.882;9.210;2023-04-15T02:30:56;4.65;;;3.85;;
46334;SDS011;32051;48.882;9.210;2023-04-15T02:33:23;13.02;;;4.88;;
46334;SDS011;32051;48.882;9.210;2023-04-15T02:35:49;6.90;;;4.03;;
46334;SDS011;32051;48.882;9.210;2023-04-15T02:38:17;7.63;;;4.00;;
46334;SDS011;32051;48.882;9.210;2023-04-15T02:40:43;15.35;;;5.50;;
46334;SDS011;32051;48.882;9.210;2023-04-15T02:43:09;9.73;;;4.75;;
46334;SDS011;32051;48.882;9.210;2023-04-15T02:45:35;12.25;;;5.28;;
46334;SDS011;32051;48.882;9.210;2023-04-15T02:48:03;10.38;;;5.05;;
46334;SDS011;32051;48.882;9.210;2023-04-15T02:50:30;4.55;;;4.10;;
46334;SDS011;32051;48.882;9.210;2023-04-15T02:52:56;8.82;;;4.68;;
46334;SDS011;32051;48.882;9.210;2023-04-15T02:55:22;6.22;;;4.40;;
46334;SDS011;32051;48.882;9.210;2023-04-15T02:57:48;9.02;;;4.70;;
46334;SDS011;32051;48.882;9.210;2023-04-15T03:00:15;10.00;;;4.55;;
46334;SDS011;32051;48.882;9.210;2023-04-15T03:02:45;6.97;;;4.35;;
46334;SDS011;32051;48.882;9.210;2023-04-15T03:05:12;7.20;;;4.45;;
46334;SDS011;32051;48.882;9.210;2023-04-15T03:07:44;6.38;;;4.25;;
46334;SDS011;32051;48.882;9.210;2023-04-15T03:10:10;7.00;;;4.10;;
46334;SDS011;32051;48.882;9.210;2023-04-15T03:12:36;6.05;;;4.88;;
46334;SDS011;32051;48.882;9.210;2023-04-15T03:15:02;7.78;;;4.53;;
46334;SDS011;32051;48.882;9.210;2023-04-15T03:17:35;8.98;;;6.53;;
46334;SDS011;32051;48.882;9.210;2023-04-15T03:20:02;7.10;;;4.63;;
46334;SDS011;32051;48.882;9.210;2023-04-15T03:22:29;5.97;;;3.58;;
46334;SDS011;32051;48.882;9.210;2023-04-15T03:24:56;6.53;;;4.80;;
46334;SDS011;32051;48.882;9.210;2023-04-15T03:27:22;7.65;;;4.18;;
46334;SDS011;32051;48.882;9.210;2023-04-15T03:29:48;12.38;;;4.43;;
46334;SDS011;32051;48.882;9.210;2023-04-15T03:32:16;5.85;;;4.88;;
46334;SDS011;32051;48.882;9.210;2023-04-15T03:34:42;10.70;;;4.10;;
46334;SDS011;32051;48.882;9.210;2023-04-15T03:37:08;9.10;;;4.30;;
46334;SDS011;32051;48.882;9.210;2023-04-15T03:39:34;10.82;;;5.75;;
46334;SDS011;32051;48.882;9.210;2023-04-15T03:42:00;5.78;;;3.83;;
46334;SDS011;32051;48.882;9.210;2023-04-15T03:44:27;9.15;;;5.05;;
46334;SDS011;32051;48.882;9.210;2023-04-15T03:46:53;8.20;;;4.20;;
46334;SDS011;32051;48.882;9.210;2023-04-15T03:49:20;4.90;;;3.60;;
46334;SDS011;32051;48.882;9.210;2023-04-15T03:51:47;9.05;;;5.18;;
46334;SDS011;32051;48.882;9.210;2023-04-15T03:54:13;6.90;;;3.55;;
46334;SDS011;32051;48.882;9.210;2023-04-15T03:56:39;4.70;;;4.25;;
46334;SDS011;32051;48.882;9.210;2023-04-15T03:59:06;5.78;;;3.92;;
46334;SDS011;32051;48.882;9.210;2023-04-15T04:01:32;6.78;;;3.70;;
46334;SDS011;32051;48.882;9.210;2023-04-15T04:03:58;8.93;;;4.32;;
46334;SDS011;32051;48.882;9.210;2023-04-15T04:06:24;9.60;;;4.40;;
46334;SDS011;32051;48.882;9.210;2023-04-15T04:08:50;4.50;;;4.07;;
46334;SDS011;32051;48.882;9.210;2023-04-15T04:11:16;6.32;;;4.32;;
46334;SDS011;32051;48.882;9.210;2023-04-15T04:13:42;7.05;;;3.65;;
46334;SDS011;32051;48.882;9.210;2023-04-15T04:16:08;7.63;;;3.40;;
46334;SDS011;32051;48.882;9.210;2023-04-15T04:18:35;6.40;;;4.38;;
46334;SDS011;32051;48.882;9.210;2023-04-15T04:21:01;8.70;;;3.78;;
46334;SDS011;32051;48.882;9.210;2023-04-15T04:23:27;5.22;;;3.83;;
46334;SDS011;32051;48.882;9.210;2023-04-15T04:25:53;6.93;;;3.95;;
46334;SDS011;32051;48.882;9.210;2023-04-15T04:28:19;5.05;;;3.90;;
46334;SDS011;32051;48.882;9.210;2023-04-15T04:30:45;11.90;;;4.68;;
46334;SDS011;32051;48.882;9.210;2023-04-15T04:33:11;8.40;;;4.32;;
46334;SDS011;32051;48.882;9.210;2023-04-15T04:35:37;10.75;;;4.10;;
46334;SDS011;32051;48.882;9.210;2023-04-15T04:38:04;5.75;;;3.95;;
46334;SDS011;32051;48.882;9.210;2023-04-15T04:40:30;13.85;;;4.28;;
46334;SDS011;32051;48.882;9.210;2023-04-15T04:42:56;8.98;;;4.60;;
46334;SDS011;32051;48.882;9.210;2023-04-15T04:45:22;5.25;;;4.32;;
46334;SDS011;32051;48.882;9.210;2023-04-15T04:47:48;7.53;;;4.20;;
46334;SDS011;32051;48.882;9.210;2023-04-15T04:50:14;7.15;;;4.57;;
46334;SDS011;32051;48.882;9.210;2023-04-15T04:52:40;10.60;;;5.32;;
46334;SDS011;32051;48.882;9.210;2023-04-15T04:55:06;9.63;;;4.25;;
46334;SDS011;32051;48.882;9.210;2023-04-15T04:57:33;6.32;;;4.63;;
46334;SDS011;32051;48.882;9.210;2023-04-15T05:00:04;6.70;;;4.32;;
46334;SDS011;32051;48.882;9.210;2023-04-15T05:02:30;5.22;;;4.60;;
46334;SDS011;32051;48.882;9.210;2023-04-15T05:04:56;10.45;;;4.35;;
46334;SDS011;32051;48.882;9.210;2023-04-15T05:07:22;4.72;;;4.30;;
46334;SDS011;32051;48.882;9.210;2023-04-15T05:09:48;5.07;;;3.85;;
46334;SDS011;32051;48.882;9.210;2023-04-15T05:12:15;10.07;;;5.20;;
46334;SDS011;32051;48.882;9.210;2023-04-15T05:14:42;5.75;;;4.95;;
46334;SDS011;32051;48.882;9.210;2023-04-15T05:17:08;5.90;;;4.57;;
46334;SDS011;32051;48.882;9.210;2023-04-15T05:19:35;7.68;;;5.07;;
46334;SDS011;32051;48.882;9.210;2023-04-15T05:22:01;11.52;;;4.40;;
46334;SDS011;32051;48.882;9.210;2023-04-15T05:24:27;14.15;;;4.82;;
46334;SDS011;32051;48.882;9.210;2023-04-15T05:26:53;6.75;;;5.00;;
46334;SDS011;32051;48.882;9.210;2023-04-15T05:29:20;16.30;;;7.50;;
46334;SDS011;32051;48.882;9.210;2023-04-15T05:31:46;9.75;;;4.95;;
46334;SDS011;32051;48.882;9.210;2023-04-15T05:34:12;12.27;;;5.53;;
46334;SDS011;32051;48.882;9.210;2023-04-15T05:36:40;13.82;;;5.30;;
46334;SDS011;32051;48.882;9.210;2023-04-15T05:39:07;6.93;;;5.05;;
46334;SDS011;32051;48.882;9.210;2023-04-15T05:41:33;7.20;;;4.60;;
46334;SDS011;32051;48.882;9.210;2023-04-15T05:43:59;12.38;;;5.32;;
46334;SDS011;32051;48.882;9.210;2023-04-15T05:46:25;12.57;;;4.55;;
46334;SDS011;32051;48.882;9.210;2023-04-15T05:48:51;8.68;;;4.57;;
46334;SDS011;32051;48.882;9.210;2023-04-15T05:51:17;6.53;;;4.82;;
46334;SDS011;32051;48.882;9.210;2023-04-15T05:53:43;5.35;;;4.50;;
46334;SDS011;32051;48.882;9.210;2023-04-15T05:56:10;12.25;;;4.72;;
46334;SDS011;32051;48.882;9.210;2023-04-15T05:58:36;7.40;;;4.75;;
46334;SDS011;32051;48.882;9.210;2023-04-15T06:01:02;6.75;;;4.53;;
46334;SDS011;32051;48.882;9.210;2023-04-15T06:03:28;4.90;;;4.50;;
46334;SDS011;32051;48.882;9.210;2023-04-15T06:05:54;5.82;;;4.10;;
46334;SDS011;32051;48.882;9.210;2023-04-15T06:08:20;8.13;;;4.35;;
46334;SDS011;32051;48.882;9.210;2023-04-15T06:10:46;6.70;;;4.30;;
46334;SDS011;32051;48.882;9.210;2023-04-15T06:13:13;5.18;;;4.60;;
46334;SDS011;32051;48.882;9.210;2023-04-15T06:15:39;9.02;;;4.13;;
46334;SDS011;32051;48.882;9.210;2023-04-15T06:18:05;5.05;;;4.57;;
46334;SDS011;32051;48.882;9.210;2023-04-15T06:20:31;6.00;;;4.43;;
46334;SDS011;32051;48.882;9.210;2023-04-15T06:22:57;8.40;;;5.50;;
46334;SDS011;32051;48.882;9.210;2023-04-15T06:25:23;7.38;;;4.53;;
46334;SDS011;32051;48.882;9.210;2023-04-15T06:27:49;7.13;;;4.32;;
46334;SDS011;32051;48.882;9.210;2023-04-15T06:30:15;6.78;;;4.85;;
46334;SDS011;32051;48.882;9.210;2023-04-15T06:32:41;7.18;;;4.45;;
46334;SDS011;32051;48.882;9.210;2023-04-15T06:35:08;12.65;;;6.10;;
46334;SDS011;32051;48.882;9.210;2023-04-15T06:37:34;8.55;;;5.00;;
46334;SDS011;32051;48.882;9.210;2023-04-15T06:40:00;6.22;;;4.40;;
46334;SDS011;32051;48.882;9.210;2023-04-15T06:42:26;6.05;;;4.85;;
46334;SDS011;32051;48.882;9.210;2023-04-15T06:44:52;12.40;;;4.93;;
46334;SDS011;32051;48.882;9.210;2023-04-15T06:47:18;8.90;;;4.88;;
46334;SDS011;32051;48.882;9.210;2023-04-15T06:49:44;9.15;;;3.65;;
46334;SDS011;32051;48.882;9.210;2023-04-15T06:52:10;12.38;;;4.70;;
46334;SDS011;32051;48.882;9.210;2023-04-15T06:54:37;7.47;;;4.43;;
46334;SDS011;32051;48.882;9.210;2023-04-15T06:57:03;8.55;;;4.13;;
46334;SDS011;32051;48.882;9.210;2023-04-15T06:59:29;11.43;;;3.70;;
46334;SDS011;32051;48.882;9.210;2023-04-15T07:01:55;11.35;;;3.42;;
46334;SDS011;32051;48.882;9.210;2023-04-15T07:04:21;16.13;;;4.57;;
46334;SDS011;32051;48.882;9.210;2023-04-15T07:06:48;7.63;;;4.22;;
46334;SDS011;32051;48.882;9.210;2023-04-15T07:09:14;7.07;;;3.53;;
46334;SDS011;32051;48.882;9.210;2023-04-15T07:11:40;8.23;;;4.05;;
46334;SDS011;32051;48.882;9.210;2023-04-15T07:14:06;5.35;;;3.63;;
46334;SDS011;32051;48.882;9.210;2023-04-15T07:16:32;5.95;;;3.60;;
46334;SDS011;32051;48.882;9.210;2023-04-15T07:18:58;3.67;;;3.38;;
46334;SDS011;32051;48.882;9.210;2023-04-15T07:21:24;6.40;;;3.58;;
46334;SDS011;32051;48.882;9.210;2023-04-15T07:23:51;7.40;;;3.80;;
46334;SDS011;32051;48.882;9.210;2023-04-15T07:26:17;10.00;;;4.03;;
46334;SDS011;32051;48.882;9.210;2023-04-15T07:28:43;7.85;;;4.95;;
46334;SDS011;32051;48.882;9.210;2023-04-15T07:31:11;5.22;;;4.10;;
46334;SDS011;32051;48.882;9.210;2023-04-15T07:33:37;5.85;;;5.00;;
46334;SDS011;32051;48.882;9.210;2023-04-15T07:36:03;8.98;;;4.05;;
46334;SDS011;32051;48.882;9.210;2023-04-15T07:38:29;5.03;;;3.50;;
46334;SDS011;32051;48.882;9.210;2023-04-15T07:40:56;8.68;;;3.78;;
46334;SDS011;32051;48.882;9.210;2023-04-15T07:43:22;5.43;;;4.55;;
46334;SDS011;32051;48.882;9.210;2023-04-15T07:45:47;11.57;;;4.90;;
46334;SDS011;32051;48.882;9.210;2023-04-15T07:48:13;5.35;;;3.13;;
46334;SDS011;32051;48.882;9.210;2023-04-15T07:50:39;9.43;;;4.35;;
46334;SDS011;32051;48.882;9.210;2023-04-15T07:53:05;9.55;;;3.97;;
46334;SDS011;32051;48.882;9.210;2023-04-15T07:55:31;8.40;;;4.15;;
46334;SDS011;32051;48.882;9.210;2023-04-15T07:57:57;10.63;;;3.92;;
46334;SDS011;32051;48.882;9.210;2023-04-15T08:00:22;9.63;;;4.18;;
46334;SDS011;32051;48.882;9.210;2023-04-15T08:02:48;6.30;;;4.68;;
46334;SDS011;32051;48.882;9.210;2023-04-15T08:05:16;9.23;;;4.50;;
46334;SDS011;32051;48.882;9.210;2023-04-15T08:07:42;12.88;;;5.20;;
46334;SDS011;32051;48.882;9.210;2023-04-15T08:10:08;8.57;;;3.70;;
46334;SDS011;32051;48.882;9.210;2023-04-15T08:12:34;5.70;;;4.38;;
46334;SDS011;32051;48.882;9.210;2023-04-15T08:15:00;5.70;;;3.88;;
46334;SDS011;32051;48.882;9.210;2023-04-15T08:17:27;11.73;;;5.47;;
46334;SDS011;32051;48.882;9.210;2023-04-15T08:19:53;15.38;;;5.78;;
46334;SDS011;32051;48.882;9.210;2023-04-15T08:22:18;17.45;;;4.57;;
46334;SDS011;32051;48.882;9.210;2023-04-15T08:24:44;7.38;;;4.47;;
46334;SDS011;32051;48.882;9.210;2023-04-15T08:27:10;10.48;;;3.90;;
46334;SDS011;32051;48.882;9.210;2023-04-15T08:29:36;8.52;;;2.80;;
46334;SDS011;32051;48.882;9.210;2023-04-15T08:32:02;11.05;;;3.35;;
46334;SDS011;32051;48.882;9.210;2023-04-15T08:34:28;4.45;;;2.55;;
46334;SDS011;32051;48.882;9.210;2023-04-15T08:36:57;9.35;;;3.63;;
46334;SDS011;32051;48.882;9.210;2023-04-15T08:39:24;8.10;;;2.63;;
46334;SDS011;32051;48.882;9.210;2023-04-15T08:42:00;7.32;;;2.65;;
46334;SDS011;32051;48.882;9.210;2023-04-15T08:44:32;4.65;;;2.33;;
46334;SDS011;32051;48.882;9.210;2023-04-15T08:47:02;3.97;;;2.53;;
46334;SDS011;32051;48.882;9.210;2023-04-15T08:49:28;3.08;;;2.67;;
46334;SDS011;32051;48.882;9.210;2023-04-15T08:51:54;7.78;;;3.15;;
46334;SDS011;32051;48.882;9.210;2023-04-15T08:54:23;6.88;;;2.90;;
46334;SDS011;32051;48.882;9.210;2023-04-15T08:56:50;9.73;;;2.50;;
46334;SDS011;32051;48.882;9.210;2023-04-15T08:59:18;9.77;;;3.00;;
46334;SDS011;32051;48.882;9.210;2023-04-15T09:01:46;3.83;;;2.58;;
46334;SDS011;32051;48.882;9.210;2023-04-15T09:04:14;3.88;;;2.33;;
46334;SDS011;32051;48.882;9.210;2023-04-15T09:06:41;4.63;;;2.72;;
46334;SDS011;32051;48.882;9.210;2023-04-15T09:09:06;4.30;;;2.47;;
46334;SDS011;32051;48.882;9.210;2023-04-15T09:11:32;5.10;;;2.00;;
46334;SDS011;32051;48.882;9.210;2023-04-15T09:13:58;3.35;;;2.65;;
46334;SDS011;32051;48.882;9.210;2023-04-15T09:16:24;9.77;;;2.85;;
46334;SDS011;32051;48.882;9.210;2023-04-15T09:18:50;4.00;;;2.92;;
46334;SDS011;32051;48.882;9.210;2023-04-15T09:21:16;7.35;;;2.80;;
46334;SDS011;32051;48.882;9.210;2023-04-15T09:23:59;4.38;;;2.72;;
46334;SDS011;32051;48.882;9.210;2023-04-15T09:26:35;3.08;;;2.20;;
46334;SDS011;32051;48.882;9.210;2023-04-15T09:29:05;3.17;;;2.30;;
46334;SDS011;32051;48.882;9.210;2023-04-15T09:31:32;2.53;;;2.33;;
46334;SDS011;32051;48.882;9.210;2023-04-15T09:33:58;2.72;;;1.80;;
46334;SDS011;32051;48.882;9.210;2023-04-15T09:36:23;3.55;;;2.25;;
46334;SDS011;32051;48.882;9.210;2023-04-15T09:38:53;5.50;;;2.15;;
46334;SDS011;32051;48.882;9.210;2023-04-15T09:43:49;4.65;;;1.90;;
46334;SDS011;32051;48.882;9.210;2023-04-15T09:46:15;6.72;;;1.92;;
46334;SDS011;32051;48.882;9.210;2023-04-15T09:48:40;2.92;;;2.53;;
46334;SDS011;32051;48.882;9.210;2023-04-15T09:51:06;5.00;;;2.10;;
46334;SDS011;32051;48.882;9.210;2023-04-15T09:53:33;3.13;;;2.83;;
46334;SDS011;32051;48.882;9.210;2023-04-15T09:56:01;6.68;;;2.80;;
46334;SDS011;32051;48.882;9.210;2023-04-15T09:58:31;4.93;;;2.38;;
46334;SDS011;32051;48.882;9.210;2023-04-15T10:00:59;4.57;;;2.83;;
46334;SDS011;32051;48.882;9.210;2023-04-15T10:03:28;3.22;;;2.00;;
46334;SDS011;32051;48.882;9.210;2023-04-15T10:06:00;3.50;;;2.15;;
46334;SDS011;32051;48.882;9.210;2023-04-15T10:08:27;8.15;;;2.15;;
46334;SDS011;32051;48.882;9.210;2023-04-15T10:10:54;1.75;;;1.58;;
46334;SDS011;32051;48.882;9.210;2023-04-15T10:13:22;2.50;;;2.17;;
46334;SDS011;32051;48.882;9.210;2023-04-15T10:15:56;3.25;;;2.47;;
46334;SDS011;32051;48.882;9.210;2023-04-15T10:18:29;2.25;;;2.05;;
46334;SDS011;32051;48.882;9.210;2023-04-15T10:20:59;1.83;;;1.35;;
46334;SDS011;32051;48.882;9.210;2023-04-15T10:23:25;2.30;;;1.30;;
46334;SDS011;32051;48.882;9.210;2023-04-15T10:25:52;6.72;;;1.50;;
46334;SDS011;32051;48.882;9.210;2023-04-15T10:28:19;2.80;;;1.58;;
46334;SDS011;32051;48.882;9.210;2023-04-15T10:30:47;1.25;;;1.13;;
46334;SDS011;32051;48.882;9.210;2023-04-15T10:33:14;5.30;;;1.50;;
46334;SDS011;32051;48.882;9.210;2023-04-15T10:35:44;5.20;;;2.15;;
46334;SDS011;32051;48.882;9.210;2023-04-15T10:41:18;6.30;;;1.67;;
46334;SDS011;32051;48.882;9.210;2023-04-15T10:46:43;3.92;;;2.20;;
46334;SDS011;32051;48.882;9.210;2023-04-15T10:49:10;4.22;;;2.17;;
46334;SDS011;32051;48.882;9.210;2023-04-15T10:51:44;3.08;;;1.83;;
46334;SDS011;32051;48.882;9.210;2023-04-15T10:56:51;6.18;;;1.40;;
46334;SDS011;32051;48.882;9.210;2023-04-15T10:59:17;15.85;;;2.85;;
46334;SDS011;32051;48.882;9.210;2023-04-15T11:01:53;3.03;;;2.60;;
46334;SDS011;32051;48.882;9.210;2023-04-15T11:07:10;4.65;;;2.17;;
46334;SDS011;32051;48.882;9.210;2023-04-15T11:09:36;4.68;;;2.53;;
46334;SDS011;32051;48.882;9.210;2023-04-15T11:14:41;3.58;;;1.98;;
46334;SDS011;32051;48.882;9.210;2023-04-15T11:17:07;5.35;;;2.88;;
46334;SDS011;32051;48.882;9.210;2023-04-15T11:19:36;2.88;;;2.60;;
46334;SDS011;32051;48.882;9.210;2023-04-15T11:22:09;5.15;;;3.22;;
46334;SDS011;32051;48.882;9.210;2023-04-15T11:24:36;2.55;;;2.35;;
46334;SDS011;32051;48.882;9.210;2023-04-15T11:27:02;3.00;;;2.30;;
46334;SDS011;32051;48.882;9.210;2023-04-15T11:29:29;2.97;;;2.25;;
46334;SDS011;32051;48.882;9.210;2023-04-15T11:32:08;4.07;;;2.15;;
46334;SDS011;32051;48.882;9.210;2023-04-15T11:34:34;3.45;;;2.00;;
46334;SDS011;32051;48.882;9.210;2023-04-15T11:37:04;5.97;;;2.75;;
46334;SDS011;32051;48.882;9.210;2023-04-15T11:39:32;2.70;;;2.40;;
46334;SDS011;32051;48.882;9.210;2023-04-15T11:41:59;4.57;;;2.03;;
46334;SDS011;32051;48.882;9.210;2023-04-15T11:44:24;11.02;;;2.58;;
46334;SDS011;32051;48.882;9.210;2023-04-15T11:46:50;3.30;;;2.92;;
46334;SDS011;32051;48.882;9.210;2023-04-15T11:49:28;9.77;;;1.90;;
46334;SDS011;32051;48.882;9.210;2023-04-15T11:51:55;2.20;;;1.30;;
46334;SDS011;32051;48.882;9.210;2023-04-15T11:54:20;3.83;;;1.70;;
46334;SDS011;32051;48.882;9.210;2023-04-15T11:56:50;6.32;;;1.40;;
46334;SDS011;32051;48.882;9.210;2023-04-15T11:59:16;2.17;;;1.35;;
46334;SDS011;32051;48.882;9.210;2023-04-15T12:01:42;3.10;;;1.35;;
46334;SDS011;32051;48.882;9.210;2023-04-15T12:04:16;3.28;;;1.80;;
46334;SDS011;32051;48.882;9.210;2023-04-15T12:06:48;3.05;;;1.88;;
46334;SDS011;32051;48.882;9.210;2023-04-15T12:09:17;2.75;;;2.13;;
46334;SDS011;32051;48.882;9.210;2023-04-15T12:11:50;3.50;;;1.63;;
46334;SDS011;32051;48.882;9.210;2023-04-15T12:16:51;2.97;;;2.67;;
46334;SDS011;32051;48.882;9.210;2023-04-15T12:19:25;2.88;;;1.50;;
46334;SDS011;32051;48.882;9.210;2023-04-15T12:21:56;2.45;;;2.03;;
46334;SDS011;32051;48.882;9.210;2023-04-15T12:24:34;3.28;;;2.33;;
46334;SDS011;32051;48.882;9.210;2023-04-15T12:27:01;2.13;;;2.03;;
46334;SDS011;32051;48.882;9.210;2023-04-15T12:29:28;4.50;;;2.67;;
46334;SDS011;32051;48.882;9.210;2023-04-15T12:31:55;4.22;;;2.22;;
46334;SDS011;32051;48.882;9.210;2023-04-15T12:34:29;6.97;;;2.63;;
46334;SDS011;32051;48.882;9.210;2023-04-15T12:36:56;2.50;;;1.65;;
46334;SDS011;32051;48.882;9.210;2023-04-15T12:39:23;4.00;;;1.73;;
46334;SDS011;32051;48.882;9.210;2023-04-15T12:41:50;6.72;;;2.60;;
46334;SDS011;32051;48.882;9.210;2023-04-15T12:44:16;2.42;;;2.20;;
46334;SDS011;32051;48.882;9.210;2023-04-15T12:46:42;5.07;;;3.78;;
46334;SDS011;32051;48.882;9.210;2023-04-15T12:49:08;3.70;;;1.92;;
46334;SDS011;32051;48.882;9.210;2023-04-15T12:51:34;6.88;;;1.73;;
46334;SDS011;32051;48.882;9.210;2023-04-15T12:53:59;3.72;;;1.52;;
46334;SDS011;32051;48.882;9.210;2023-04-15T12:56:25;2.55;;;1.33;;
46334;SDS011;32051;48.882;9.210;2023-04-15T12:58:51;4.65;;;1.60;;
46334;SDS011;32051;48.882;9.210;2023-04-15T13:01:17;2.17;;;1.33;;
46334;SDS011;32051;48.882;9.210;2023-04-15T13:03:42;4.00;;;1.70;;
46334;SDS011;32051;48.882;9.210;2023-04-15T13:06:08;2.92;;;1.40;;
46334;SDS011;32051;48.882;9.210;2023-04-15T13:08:36;4.68;;;1.65;;
46334;SDS011;32051;48.882;9.210;2023-04-15T13:11:02;2.13;;;1.90;;
46334;SDS011;32051;48.882;9.210;2023-04-15T13:13:28;5.65;;;1.95;;
46334;SDS011;32051;48.882;9.210;2023-04-15T13:15:56;3.88;;;1.92;;
46334;SDS011;32051;48.882;9.210;2023-04-15T13:18:22;1.45;;;1.30;;
46334;SDS011;32051;48.882;9.210;2023-04-15T13:20:48;2.95;;;1.15;;
46334;SDS011;32051;48.882;9.210;2023-04-15T13:23:14;0.90;;;0.90;;
46334;SDS011;32051;48.882;9.210;2023-04-15T13:25:39;2.47;;;1.35;;
46334;SDS011;32051;48.882;9.210;2023-04-15T13:28:05;0.65;;;0.65;;
46334;SDS011;32051;48.882;9.210;2023-04-15T13:30:31;0.50;;;0.50;;
46334;SDS011;32051;48.882;9.210;2023-04-15T13:32:56;1.13;;;1.02;;
46334;SDS011;32051;48.882;9.210;2023-04-15T13:35:22;2.53;;;0.68;;
46334;SDS011;32051;48.882;9.210;2023-04-15T13:37:48;3.80;;;0.88;;
46334;SDS011;32051;48.882;9.210;2023-04-15T13:40:13;2.40;;;0.60;;
46334;SDS011;32051;48.882;9.210;2023-04-15T13:42:39;3.22;;;0.75;;
46334;SDS011;32051;48.882;9.210;2023-04-15T13:45:06;0.70;;;0.70;;
46334;SDS011;32051;48.882;9.210;2023-04-15T13:47:32;1.08;;;0.40;;
46334;SDS011;32051;48.882;9.210;2023-04-15T13:49:58;1.02;;;0.60;;
46334;SDS011;32051;48.882;9.210;2023-04-15T13:52:24;4.43;;;1.90;;
46334;SDS011;32051;48.882;9.210;2023-04-15T13:54:50;8.27;;;1.00;;
46334;SDS011;32051;48.882;9.210;2023-04-15T13:57:16;1.05;;;0.70;;
46334;SDS011;32051;48.882;9.210;2023-04-15T13:59:41;1.23;;;1.20;;
46334;SDS011;32051;48.882;9.210;2023-04-15T14:02:08;0.40;;;0.40;;
46334;SDS011;32051;48.882;9.210;2023-04-15T14:04:34;1.40;;;1.00;;
46334;SDS011;32051;48.882;9.210;2023-04-15T14:06:59;3.85;;;1.38;;
46334;SDS011;32051;48.882;9.210;2023-04-15T14:09:25;0.90;;;0.90;;
46334;SDS011;32051;48.882;9.210;2023-04-15T14:11:51;3.50;;;1.10;;
46334;SDS011;32051;48.882;9.210;2023-04-15T14:14:17;0.60;;;0.60;;
46334;SDS011;32051;48.882;9.210;2023-04-15T14:16:42;1.85;;;1.40;;
46334;SDS011;32051;48.882;9.210;2023-04-15T14:19:08;1.23;;;1.13;;
46334;SDS011;32051;48.882;9.210;2023-04-15T14:21:34;1.60;;;1.45;;
46334;SDS011;32051;48.882;9.210;2023-04-15T14:24:00;4.40;;;2.80;;
46334;SDS011;32051;48.882;9.210;2023-04-15T14:26:25;4.03;;;1.65;;
46334;SDS011;32051;48.882;9.210;2023-04-15T14:28:51;6.60;;;0.70;;
46334;SDS011;32051;48.882;9.210;2023-04-15T14:31:17;8.82;;;1.27;;
46334;SDS011;32051;48.882;9.210;2023-04-15T14:33:43;1.40;;;1.10;;
46334;SDS011;32051;48.882;9.210;2023-04-15T14:36:09;1.88;;;0.82;;
46334;SDS011;32051;48.882;9.210;2023-04-15T14:38:35;1.77;;;1.00;;
46334;SDS011;32051;48.882;9.210;2023-04-15T14:41:05;3.65;;;0.98;;
46334;SDS011;32051;48.882;9.210;2023-04-15T14:43:32;1.65;;;1.05;;
46334;SDS011;32051;48.882;9.210;2023-04-15T14:45:58;4.50;;;1.15;;
46334;SDS011;32051;48.882;9.210;2023-04-15T14:48:24;3.90;;;0.90;;
46334;SDS011;32051;48.882;9.210;2023-04-15T14:50:50;6.88;;;1.10;;
46334;SDS011;32051;48.882;9.210;2023-04-15T14:53:16;3.47;;;0.98;;
46334;SDS011;32051;48.882;9.210;2023-04-15T14:55:42;1.63;;;0.85;;
46334;SDS011;32051;48.882;9.210;2023-04-15T14:58:09;1.23;;;1.02;;
46334;SDS011;32051;48.882;9.210;2023-04-15T15:00:36;2.53;;;1.05;;
46334;SDS011;32051;48.882;9.210;2023-04-15T15:03:04;3.88;;;1.58;;